TimeCST,TemperatureF,Dew PointF,Humidity,Sea Level PressureIn,VisibilityMPH,Wind Direction,Wind SpeedMPH,Gust SpeedMPH,PrecipitationIn,Events,Conditions,WindDirDegrees,DateUTC
12:56 AM,33.1,21.9,64,29.90,10.0,SSE,8.1,-,N/A,,Clear,150,2011-11-11 06:56:00
1:56 AM,34.0,23.0,64,29.85,10.0,South,9.2,-,N/A,,Clear,170,2011-11-11 07:56:00
2:56 AM,33.1,23.0,66,29.83,10.0,Variable,4.6,-,N/A,,Clear,0,2011-11-11 08:56:00
3:56 AM,30.9,23.0,72,29.80,10.0,SSW,6.9,-,N/A,,Clear,200,2011-11-11 09:56:00
4:56 AM,28.9,21.9,75,29.79,10.0,Calm,Calm,-,N/A,,Clear,0,2011-11-11 10:56:00
6:56 AM,21.0,17.1,85,29.80,10.0,Calm,Calm,-,N/A,,Clear,0,2011-11-11 12:56:00
7:56 AM,27.0,19.9,75,29.80,10.0,West,3.5,-,N/A,,Clear,270,2011-11-11 13:56:00
8:56 AM,39.9,23.0,51,29.80,10.0,West,10.4,-,N/A,,Clear,280,2011-11-11 14:56:00
10:56 AM,54.0,23.0,30,29.79,10.0,West,9.2,-,N/A,,Clear,260,2011-11-11 16:56:00
11:56 AM,57.9,21.0,24,29.77,10.0,West,12.7,-,N/A,,Clear,280,2011-11-11 17:56:00
12:56 PM,64.0,19.0,18,29.74,10.0,West,15.0,-,N/A,,Clear,280,2011-11-11 18:56:00
1:56 PM,66.9,18.0,15,29.71,10.0,West,11.5,-,N/A,,Clear,280,2011-11-11 19:56:00
2:56 PM,66.9,17.1,15,29.71,10.0,West,15.0,-,N/A,,Clear,280,2011-11-11 20:56:00
4:56 PM,57.9,18.0,21,29.72,10.0,WSW,5.8,-,N/A,,Clear,250,2011-11-11 22:56:00
5:56 PM,50.0,18.0,28,29.73,10.0,SW,6.9,-,N/A,,Clear,230,2011-11-11 23:56:00
6:56 PM,48.9,19.0,31,29.73,10.0,SSW,10.4,-,N/A,,Clear,200,2011-11-12 00:56:00
7:56 PM,46.0,19.0,34,29.72,10.0,SSW,9.2,-,N/A,,Clear,200,2011-11-12 01:56:00
8:56 PM,39.9,19.0,43,29.71,10.0,SSW,5.8,-,N/A,,Clear,200,2011-11-12 02:56:00
9:56 PM,39.9,19.0,43,29.69,10.0,SSW,5.8,-,N/A,,Clear,200,2011-11-12 03:56:00
10:56 PM,37.9,19.9,48,29.67,10.0,Calm,Calm,-,N/A,,Clear,0,2011-11-12 04:56:00
11:56 PM,37.9,18.0,45,29.66,10.0,SW,3.5,-,N/A,,Clear,230,2011-11-12 05:56:00